メインページ
METAR-TAF:

METAR-TAF

空港 :

ハールク島, イラン

緯度: 29-15-34N, 経度: 50-19-24E, 海抜: 5m

現時点の気象観測

当レポートは5時間15分前の15:00(UTC)に作成
西/北西の風 17kt
気温 20°C
湿度 64%
気圧 1019 hPa
視程10km以上
1,500メートル以下は雲なし、積乱雲なし

METAR: OIBQ 111500Z 29017KT CAVOK 20/13 Q1019

時間: 23:45 (20:15 UTC)


TAF: 見つかりません

4,000以上の空港の気象観測と天気予報(METAR報とTAF報)

利用可能な観測所は地図上に黄色い丸と赤い丸で示す。

丸の上にカーソルを重ねると観測所名を参照できる。

次にクリックすると気象観測と天気予報を参照できる。

マップの切り替え:黒色「×」印の緑ボタンをクリックして拡大、「-」印の緑ボタンをクリックして縮小、緑色の三角印をクリックして隣りの地図に切り替え


METAR-TAF: